createdAt,value
2023-03-23T00:00:24.257Z,352
2023-03-23T00:01:23.101Z,351
2023-03-23T00:02:22.543Z,343
2023-03-23T00:03:23.080Z,341
2023-03-23T00:04:23.270Z,357
2023-03-23T00:05:22.993Z,354
2023-03-23T00:07:23.296Z,348
2023-03-23T00:08:22.984Z,354
2023-03-23T00:09:23.107Z,359
2023-03-23T00:10:22.940Z,350
2023-03-23T00:11:23.165Z,353
2023-03-23T00:12:22.960Z,359
2023-03-23T00:13:22.359Z,366
2023-03-23T00:14:23.018Z,355
2023-03-23T00:15:23.059Z,347
2023-03-23T00:16:23.007Z,344
2023-03-23T00:17:22.753Z,347
2023-03-23T00:18:23.060Z,349
2023-03-23T00:19:23.017Z,360
2023-03-23T00:20:23.302Z,351
2023-03-23T00:21:23.079Z,344
2023-03-23T00:22:22.963Z,347
2023-03-23T00:23:22.737Z,350
2023-03-23T00:24:23.231Z,342
2023-03-23T00:25:23.220Z,346
2023-03-23T00:26:22.096Z,354
2023-03-23T00:27:22.711Z,338
2023-03-23T00:28:22.987Z,352
2023-03-23T00:29:23.143Z,361
2023-03-23T00:30:23.338Z,352
2023-03-23T00:31:22.735Z,350
2023-03-23T00:32:23.229Z,343
2023-03-23T00:33:22.618Z,341
2023-03-23T00:34:23.049Z,345
2023-03-23T00:35:23.486Z,351
2023-03-23T00:37:22.172Z,353
2023-03-23T00:38:22.318Z,347
2023-03-23T00:39:22.872Z,350
2023-03-23T00:40:23.291Z,353
2023-03-23T00:41:22.759Z,344
2023-03-23T00:42:22.996Z,341
2023-03-23T00:43:22.634Z,339
2023-03-23T00:44:22.994Z,352
2023-03-23T00:45:23.206Z,351
2023-03-23T00:46:23.115Z,344
2023-03-23T00:47:23.383Z,349
2023-03-23T00:48:22.677Z,357
2023-03-23T00:49:23.670Z,362
2023-03-23T00:50:26.809Z,356
2023-03-23T00:52:22.066Z,346
2023-03-23T00:53:22.938Z,354
2023-03-23T00:54:22.918Z,346
2023-03-23T00:55:23.285Z,338
2023-03-23T00:56:22.961Z,350
2023-03-23T00:58:22.716Z,361
2023-03-23T00:59:22.905Z,357
2023-03-23T01:00:24.551Z,361
2023-03-23T01:01:25.929Z,351
2023-03-23T01:02:23.069Z,347
2023-03-23T01:03:23.139Z,344
2023-03-23T01:04:23.230Z,348
2023-03-23T01:05:22.852Z,350
2023-03-23T01:06:23.448Z,359
2023-03-23T01:08:22.631Z,348
2023-03-23T01:09:22.800Z,341
2023-03-23T01:10:23.531Z,330
2023-03-23T01:11:22.844Z,341
2023-03-23T01:12:22.598Z,347
2023-03-23T01:13:22.829Z,352
2023-03-23T01:14:22.706Z,355
2023-03-23T01:16:22.290Z,353
2023-03-23T01:17:22.930Z,351
2023-03-23T01:18:22.749Z,353
2023-03-23T01:19:23.403Z,343
2023-03-23T01:20:22.987Z,336
2023-03-23T01:21:22.877Z,351
2023-03-23T01:23:23.378Z,349
2023-03-23T01:24:22.781Z,337
2023-03-23T01:25:23.232Z,344
2023-03-23T01:26:23.237Z,353
2023-03-23T01:27:22.617Z,347
2023-03-23T01:29:22.960Z,348
2023-03-23T01:30:23.166Z,351
2023-03-23T01:33:22.536Z,354
2023-03-23T01:34:22.765Z,357
2023-03-23T01:35:23.307Z,361
2023-03-23T01:36:23.110Z,349
2023-03-23T01:37:23.287Z,352
2023-03-23T01:38:23.010Z,354
2023-03-23T01:39:23.321Z,348
2023-03-23T01:40:23.284Z,345
2023-03-23T01:41:23.199Z,343
2023-03-23T01:42:22.684Z,348
2023-03-23T01:43:22.553Z,363
2023-03-23T01:44:23.367Z,354
2023-03-23T01:45:36.962Z,349
2023-03-23T01:46:23.031Z,348
2023-03-23T01:47:37.300Z,343
2023-03-23T01:48:21.812Z,348
2023-03-23T01:49:22.920Z,353
2023-03-23T01:50:23.146Z,350
2023-03-23T01:51:26.194Z,348
2023-03-23T01:52:22.735Z,350
2023-03-23T01:53:22.400Z,344
2023-03-23T01:54:23.261Z,350
2023-03-23T01:55:22.994Z,353
2023-03-23T01:56:22.112Z,352
2023-03-23T01:57:22.914Z,350
2023-03-23T01:58:22.805Z,346
2023-03-23T01:59:22.746Z,350
2023-03-23T02:00:24.201Z,344
2023-03-23T02:01:23.323Z,339
2023-03-23T02:02:23.135Z,348
2023-03-23T02:03:23.148Z,346
2023-03-23T02:04:23.089Z,345
2023-03-23T02:05:23.142Z,355
2023-03-23T02:06:23.196Z,352
2023-03-23T02:07:23.358Z,347
2023-03-23T02:09:23.890Z,354
2023-03-23T02:10:23.432Z,355
2023-03-23T02:11:22.535Z,358
2023-03-23T02:12:23.395Z,354
2023-03-23T02:13:22.661Z,357
2023-03-23T02:14:22.655Z,340
2023-03-23T02:15:23.204Z,351
2023-03-23T02:16:23.173Z,356
2023-03-23T02:17:22.837Z,358
2023-03-23T02:18:22.520Z,361
2023-03-23T02:19:22.686Z,355
2023-03-23T02:20:22.860Z,348
2023-03-23T02:21:23.265Z,355
2023-03-23T02:22:22.843Z,363
2023-03-23T02:23:22.332Z,355
2023-03-23T02:24:22.596Z,351
2023-03-23T02:25:22.642Z,344
2023-03-23T02:26:22.870Z,347
2023-03-23T02:27:22.822Z,342
2023-03-23T02:28:22.865Z,355
2023-03-23T02:29:22.688Z,357
2023-03-23T02:30:23.651Z,340
2023-03-23T02:31:22.542Z,344
2023-03-23T02:32:22.415Z,354
2023-03-23T02:34:25.201Z,353
2023-03-23T02:35:22.951Z,362
2023-03-23T02:36:23.033Z,368
2023-03-23T02:37:23.345Z,362
2023-03-23T02:38:22.508Z,355
2023-03-23T02:39:23.100Z,337
2023-03-23T02:40:22.973Z,348
2023-03-23T02:41:22.846Z,355
2023-03-23T02:42:22.555Z,349
2023-03-23T02:43:22.670Z,345
2023-03-23T02:44:22.486Z,349
2023-03-23T02:45:23.176Z,357
2023-03-23T02:46:22.884Z,358
2023-03-23T02:48:23.097Z,361
2023-03-23T02:49:23.302Z,353
2023-03-23T02:51:22.382Z,348
2023-03-23T02:52:22.487Z,342
2023-03-23T02:53:23.130Z,336
2023-03-23T02:54:23.103Z,344
2023-03-23T02:55:23.447Z,343
2023-03-23T02:56:23.008Z,351
2023-03-23T02:57:22.887Z,356
2023-03-23T02:58:22.528Z,364
2023-03-23T02:59:23.072Z,359
2023-03-23T03:00:24.234Z,357
2023-03-23T03:02:23.268Z,361
2023-03-23T03:03:22.800Z,364
2023-03-23T03:04:23.095Z,358
2023-03-23T03:05:22.640Z,356
2023-03-23T03:06:22.858Z,351
2023-03-23T03:07:22.958Z,362
2023-03-23T03:08:22.621Z,359
2023-03-23T03:09:23.098Z,350
2023-03-23T03:10:23.119Z,355
2023-03-23T03:11:23.057Z,359
2023-03-23T03:12:22.891Z,353
2023-03-23T03:13:22.590Z,363
2023-03-23T03:14:23.032Z,353
2023-03-23T03:15:22.676Z,360
2023-03-23T03:16:22.769Z,365
2023-03-23T03:17:22.612Z,362
2023-03-23T03:18:22.195Z,352
2023-03-23T03:19:22.772Z,356
2023-03-23T03:20:22.181Z,363
2023-03-23T03:21:22.958Z,371
2023-03-23T03:22:22.827Z,357
2023-03-23T03:23:22.393Z,348
2023-03-23T03:24:22.892Z,354
2023-03-23T03:25:23.188Z,364
2023-03-23T03:26:22.251Z,356
2023-03-23T03:27:22.293Z,354
2023-03-23T03:29:22.610Z,343
2023-03-23T03:30:22.961Z,342
2023-03-23T03:31:22.777Z,349
2023-03-23T03:32:22.524Z,344
2023-03-23T03:33:22.474Z,356
2023-03-23T03:34:22.794Z,351
2023-03-23T03:35:23.327Z,345
2023-03-23T03:38:22.489Z,351
2023-03-23T03:39:22.645Z,354
2023-03-23T03:40:22.777Z,353
2023-03-23T03:41:22.319Z,351
2023-03-23T03:42:22.800Z,354
2023-03-23T03:43:23.493Z,362
2023-03-23T03:44:22.710Z,359
2023-03-23T03:45:22.951Z,363
2023-03-23T03:46:27.863Z,360
2023-03-23T03:47:23.082Z,345
2023-03-23T03:48:27.809Z,349
2023-03-23T03:49:23.423Z,354
2023-03-23T03:50:27.602Z,352
2023-03-23T03:51:22.329Z,346
2023-03-23T03:52:27.804Z,347
2023-03-23T03:53:22.977Z,352
2023-03-23T03:54:27.578Z,356
2023-03-23T03:55:22.482Z,359
2023-03-23T03:56:22.798Z,360
2023-03-23T03:57:22.415Z,359
2023-03-23T03:58:31.152Z,352
2023-03-23T03:59:23.326Z,354
2023-03-23T04:01:23.270Z,349
2023-03-23T04:02:22.495Z,347
2023-03-23T04:03:23.071Z,355
2023-03-23T04:04:22.859Z,352
2023-03-23T04:05:22.685Z,357
2023-03-23T04:06:22.560Z,359
2023-03-23T04:07:23.014Z,364
2023-03-23T04:08:22.257Z,353
2023-03-23T04:09:22.934Z,346
2023-03-23T04:10:32.613Z,350
2023-03-23T04:11:33.313Z,358
2023-03-23T04:12:22.370Z,350
2023-03-23T04:13:22.369Z,346
2023-03-23T04:14:22.705Z,360
2023-03-23T04:15:22.368Z,364
2023-03-23T04:16:23.022Z,358
2023-03-23T04:17:22.843Z,357
2023-03-23T04:18:22.731Z,348
2023-03-23T04:19:23.328Z,354
2023-03-23T04:20:31.626Z,365
2023-03-23T04:21:22.204Z,370
2023-03-23T04:22:22.606Z,352
2023-03-23T04:23:22.288Z,345
2023-03-23T04:24:56.427Z,354
2023-03-23T04:25:30.588Z,361
2023-03-23T04:27:22.259Z,359
2023-03-23T04:28:22.837Z,356
2023-03-23T04:29:22.148Z,357
2023-03-23T04:30:23.080Z,350
2023-03-23T04:31:22.460Z,349
2023-03-23T04:32:22.161Z,345
2023-03-23T04:33:22.693Z,353
2023-03-23T04:34:23.116Z,349
2023-03-23T04:35:22.943Z,352
2023-03-23T04:36:22.156Z,348
2023-03-23T04:37:29.205Z,350
2023-03-23T04:38:22.161Z,344
2023-03-23T04:39:23.149Z,358
2023-03-23T04:40:23.139Z,364
2023-03-23T04:41:22.791Z,363
2023-03-23T04:42:22.640Z,350
2023-03-23T04:43:22.386Z,359
2023-03-23T04:44:22.193Z,357
2023-03-23T04:45:22.496Z,352
2023-03-23T04:46:22.107Z,357
2023-03-23T04:47:22.770Z,349
2023-03-23T04:48:22.435Z,347
2023-03-23T04:49:22.667Z,348
2023-03-23T04:50:22.622Z,360
2023-03-23T04:51:22.571Z,356
2023-03-23T04:52:22.756Z,364
2023-03-23T04:53:22.417Z,363
2023-03-23T04:55:22.799Z,355
2023-03-23T04:56:22.736Z,354
2023-03-23T04:57:22.767Z,350
2023-03-23T04:58:22.170Z,351
2023-03-23T04:59:23.271Z,345
2023-03-23T05:00:23.533Z,348
2023-03-23T05:01:23.486Z,354
2023-03-23T05:03:22.286Z,353
2023-03-23T05:04:22.945Z,347
2023-03-23T05:05:23.067Z,352
2023-03-23T05:06:22.795Z,359
2023-03-23T05:07:22.244Z,349
2023-03-23T05:08:22.075Z,345
2023-03-23T05:09:22.840Z,348
2023-03-23T05:11:22.440Z,358
2023-03-23T05:13:22.282Z,360
2023-03-23T05:14:22.208Z,366
2023-03-23T05:15:23.503Z,350
2023-03-23T05:16:21.874Z,346
2023-03-23T05:17:22.792Z,352
2023-03-23T05:18:22.304Z,356
2023-03-23T05:20:22.896Z,355
2023-03-23T05:21:22.207Z,363
2023-03-23T05:22:23.196Z,371
2023-03-23T05:23:22.056Z,365
2023-03-23T05:24:23.180Z,357
2023-03-23T05:26:22.875Z,347
2023-03-23T05:27:22.483Z,352
2023-03-23T05:28:22.369Z,347
2023-03-23T05:29:23.189Z,335
2023-03-23T05:30:23.328Z,351
2023-03-23T05:31:22.410Z,357
2023-03-23T05:32:22.560Z,364
2023-03-23T05:33:22.668Z,357
2023-03-23T05:34:23.246Z,353
2023-03-23T05:35:22.862Z,364
2023-03-23T05:36:22.945Z,360
2023-03-23T05:37:22.849Z,349
2023-03-23T05:38:22.960Z,361
2023-03-23T05:39:23.093Z,365
2023-03-23T05:40:23.014Z,359
2023-03-23T05:41:22.822Z,356
2023-03-23T05:43:22.634Z,357
2023-03-23T05:44:22.964Z,360
2023-03-23T05:45:23.070Z,362
2023-03-23T05:46:22.175Z,355
2023-03-23T05:47:22.534Z,352
2023-03-23T05:48:22.437Z,362
2023-03-23T05:49:22.584Z,364
2023-03-23T05:50:22.693Z,357
2023-03-23T05:51:22.449Z,354
2023-03-23T05:52:22.192Z,359
2023-03-23T05:53:22.280Z,353
2023-03-23T05:54:22.410Z,362
2023-03-23T05:55:22.703Z,370
2023-03-23T05:56:22.487Z,364
2023-03-23T05:57:22.152Z,363
2023-03-23T05:59:22.179Z,364
2023-03-23T06:00:23.792Z,354
2023-03-23T06:01:22.639Z,345
2023-03-23T06:02:22.722Z,350
2023-03-23T06:03:23.300Z,353
2023-03-23T06:05:24.496Z,361
2023-03-23T06:06:23.053Z,354
2023-03-23T06:07:22.910Z,359
2023-03-23T06:08:23.036Z,363
2023-03-23T06:09:27.528Z,361
2023-03-23T06:10:23.491Z,348
2023-03-23T06:11:27.811Z,344
2023-03-23T06:12:23.098Z,339
2023-03-23T06:13:22.689Z,345
2023-03-23T06:15:23.491Z,350
2023-03-23T06:17:29.804Z,358
2023-03-23T06:18:23.074Z,344
2023-03-23T06:19:23.315Z,346
2023-03-23T06:20:23.150Z,356
2023-03-23T06:21:22.322Z,362
2023-03-23T06:22:22.825Z,357
2023-03-23T06:23:22.913Z,355
2023-03-23T06:24:23.529Z,353
2023-03-23T06:25:31.020Z,342
2023-03-23T06:26:22.699Z,348
2023-03-23T06:27:23.141Z,352
2023-03-23T06:28:22.435Z,347
2023-03-23T06:29:23.309Z,361
2023-03-23T06:30:22.750Z,364
2023-03-23T06:31:23.483Z,366
2023-03-23T06:32:24.314Z,363
2023-03-23T06:33:24.638Z,356
2023-03-23T06:34:23.111Z,357
2023-03-23T06:35:22.459Z,358
2023-03-23T06:36:23.131Z,359
2023-03-23T06:37:22.440Z,356
2023-03-23T06:38:23.290Z,347
2023-03-23T06:39:22.960Z,344
2023-03-23T06:40:23.315Z,349
2023-03-23T06:41:22.744Z,343
2023-03-23T06:42:22.922Z,350
2023-03-23T06:43:22.722Z,346
2023-03-23T06:44:22.916Z,347
2023-03-23T06:45:23.020Z,348
2023-03-23T06:46:22.567Z,352
2023-03-23T06:47:22.849Z,348
2023-03-23T06:48:23.144Z,357
2023-03-23T06:49:23.268Z,360
2023-03-23T06:51:22.728Z,363
2023-03-23T06:52:22.601Z,365
2023-03-23T06:53:22.524Z,363
2023-03-23T06:54:23.696Z,359
2023-03-23T06:55:24.020Z,353
2023-03-23T06:58:23.473Z,360
2023-03-23T06:59:23.447Z,357
2023-03-23T07:00:24.598Z,354
2023-03-23T07:01:23.232Z,359
2023-03-23T07:02:23.280Z,362
2023-03-23T07:03:22.861Z,354
2023-03-23T07:04:23.544Z,353
2023-03-23T07:06:23.772Z,355
2023-03-23T07:07:23.518Z,361
2023-03-23T07:08:23.594Z,359
2023-03-23T07:09:27.589Z,361
2023-03-23T07:10:25.782Z,356
2023-03-23T07:11:23.035Z,351
2023-03-23T07:12:23.636Z,349
2023-03-23T07:13:23.247Z,364
2023-03-23T07:14:23.659Z,373
2023-03-23T07:15:23.104Z,371
2023-03-23T07:16:22.556Z,359
2023-03-23T07:17:23.230Z,361
2023-03-23T07:18:23.038Z,364
2023-03-23T07:19:22.797Z,351
2023-03-23T07:20:23.608Z,338
2023-03-23T07:21:22.904Z,349
2023-03-23T07:22:24.787Z,353
2023-03-23T07:23:23.100Z,354
2023-03-23T07:24:23.121Z,361
2023-03-23T07:25:23.427Z,347
2023-03-23T07:26:22.448Z,340
2023-03-23T07:27:22.940Z,358
2023-03-23T07:28:23.140Z,355
2023-03-23T07:29:23.164Z,353
2023-03-23T07:30:23.599Z,349
2023-03-23T07:31:22.724Z,356
2023-03-23T07:32:23.358Z,355
2023-03-23T07:33:23.163Z,351
2023-03-23T07:34:22.643Z,353
2023-03-23T07:35:23.015Z,355
2023-03-23T07:36:23.307Z,353
2023-03-23T07:37:23.056Z,352
2023-03-23T07:38:22.886Z,359
2023-03-23T07:39:23.568Z,352
2023-03-23T07:40:22.708Z,350
2023-03-23T07:41:23.186Z,345
2023-03-23T07:42:22.816Z,352
2023-03-23T07:43:23.175Z,346
2023-03-23T07:44:22.967Z,349
2023-03-23T07:45:22.727Z,344
2023-03-23T07:46:22.736Z,350
2023-03-23T07:47:23.014Z,359
2023-03-23T07:48:22.605Z,364
2023-03-23T07:49:22.971Z,362
2023-03-23T07:50:22.552Z,361
2023-03-23T07:51:22.753Z,355
2023-03-23T07:52:23.142Z,353
2023-03-23T07:53:23.029Z,359
2023-03-23T07:54:23.217Z,354
2023-03-23T07:55:22.946Z,352
2023-03-23T07:56:22.990Z,354
2023-03-23T07:57:23.089Z,360
2023-03-23T07:58:22.838Z,362
2023-03-23T07:59:23.175Z,353
2023-03-23T08:00:24.089Z,337
2023-03-23T08:01:23.316Z,344
2023-03-23T08:02:23.115Z,356
2023-03-23T08:03:22.668Z,351
2023-03-23T08:04:23.233Z,352
2023-03-23T08:05:23.045Z,353
2023-03-23T08:06:23.108Z,349
2023-03-23T08:07:22.715Z,351
2023-03-23T08:08:22.762Z,354
2023-03-23T08:09:24.045Z,352
2023-03-23T08:10:23.361Z,353
2023-03-23T08:11:23.148Z,357
2023-03-23T08:12:22.761Z,344
2023-03-23T08:13:23.229Z,339
2023-03-23T08:14:23.508Z,334
2023-03-23T08:15:23.802Z,343
2023-03-23T08:17:22.957Z,340
2023-03-23T08:18:22.941Z,346
2023-03-23T08:19:22.911Z,348
2023-03-23T08:20:23.574Z,344
2023-03-23T08:22:22.911Z,350
2023-03-23T08:23:22.604Z,343
2023-03-23T08:24:23.499Z,350
2023-03-23T08:25:23.140Z,346
2023-03-23T08:26:23.389Z,345
2023-03-23T08:27:24.044Z,347
2023-03-23T08:28:23.197Z,351
2023-03-23T08:29:23.143Z,346
2023-03-23T08:30:23.693Z,340
2023-03-23T08:31:23.749Z,348
2023-03-23T08:32:23.173Z,346
2023-03-23T08:33:23.133Z,351
2023-03-23T08:34:23.130Z,356
2023-03-23T08:35:23.205Z,345
2023-03-23T08:36:23.780Z,343
2023-03-23T08:37:23.679Z,348
2023-03-23T08:39:23.526Z,346
2023-03-23T08:40:23.714Z,347
2023-03-23T08:41:23.911Z,345
2023-03-23T08:42:23.750Z,351
2023-03-23T08:43:23.187Z,347
2023-03-23T08:44:23.650Z,342
2023-03-23T08:45:24.073Z,346
2023-03-23T08:46:24.200Z,356
2023-03-23T08:47:24.246Z,346
2023-03-23T08:48:23.751Z,345
2023-03-23T08:49:23.654Z,344
2023-03-23T08:50:32.101Z,353
2023-03-23T08:51:23.453Z,356
2023-03-23T08:52:23.585Z,348
2023-03-23T08:53:23.291Z,344
2023-03-23T08:54:31.613Z,351
2023-03-23T08:55:23.748Z,345
2023-03-23T08:56:23.417Z,339
2023-03-23T08:57:22.674Z,338
2023-03-23T08:58:23.082Z,344
2023-03-23T08:59:23.526Z,345
2023-03-23T09:00:24.257Z,353
2023-03-23T09:01:23.448Z,356
2023-03-23T09:02:23.501Z,349
2023-03-23T09:03:23.771Z,347
2023-03-23T09:04:23.140Z,355
2023-03-23T09:05:23.402Z,360
2023-03-23T09:06:23.634Z,365
2023-03-23T09:07:23.974Z,363
2023-03-23T09:08:22.886Z,358
2023-03-23T09:09:24.011Z,354
2023-03-23T09:10:23.382Z,344
2023-03-23T09:11:23.444Z,335
2023-03-23T09:12:22.999Z,346
2023-03-23T09:13:23.206Z,350
2023-03-23T09:14:23.740Z,359
2023-03-23T09:16:23.599Z,346
2023-03-23T09:17:23.703Z,351
2023-03-23T09:18:23.552Z,347
2023-03-23T09:19:23.191Z,335
2023-03-23T09:20:23.166Z,332
2023-03-23T09:21:23.146Z,339
2023-03-23T09:22:23.359Z,350
2023-03-23T09:23:23.337Z,346
2023-03-23T09:24:24.037Z,345
2023-03-23T09:25:23.497Z,350
2023-03-23T09:26:23.805Z,351
2023-03-23T09:27:24.903Z,342
2023-03-23T09:28:24.703Z,341
2023-03-23T09:29:24.784Z,345
2023-03-23T09:30:24.259Z,339
2023-03-23T09:31:24.667Z,345
2023-03-23T09:32:25.026Z,354
2023-03-23T09:33:24.866Z,350
2023-03-23T09:34:24.607Z,347
2023-03-23T09:35:24.754Z,349
2023-03-23T09:36:24.515Z,346
2023-03-23T09:37:24.775Z,337
2023-03-23T09:38:24.003Z,360
2023-03-23T09:39:24.702Z,363
2023-03-23T09:40:24.614Z,362
2023-03-23T09:41:24.453Z,353
2023-03-23T09:42:23.717Z,336
2023-03-23T09:43:22.718Z,333
2023-03-23T09:44:23.680Z,340
2023-03-23T09:46:23.033Z,339
2023-03-23T09:47:23.225Z,348
2023-03-23T09:48:23.435Z,344
2023-03-23T09:49:23.451Z,339
2023-03-23T09:50:23.431Z,335
2023-03-23T09:51:23.285Z,339
2023-03-23T09:52:23.314Z,331
2023-03-23T09:53:23.392Z,330
2023-03-23T09:54:24.699Z,328
2023-03-23T09:55:23.893Z,336
2023-03-23T09:56:24.907Z,339
2023-03-23T09:57:25.146Z,331
2023-03-23T09:58:25.556Z,352
2023-03-23T09:59:23.945Z,355
2023-03-23T10:01:29.322Z,344
2023-03-23T10:03:23.523Z,335
2023-03-23T10:04:23.878Z,336
2023-03-23T10:05:23.738Z,345
2023-03-23T10:07:23.955Z,354
2023-03-23T10:08:24.090Z,346
2023-03-23T10:09:24.293Z,340
2023-03-23T10:10:24.408Z,338
2023-03-23T10:11:23.451Z,333
2023-03-23T10:12:23.336Z,339
2023-03-23T10:13:23.839Z,342
2023-03-23T10:14:23.576Z,345
2023-03-23T10:15:24.558Z,350
2023-03-23T10:16:23.886Z,344
2023-03-23T10:17:23.806Z,345
2023-03-23T10:18:23.480Z,340
2023-03-23T10:19:23.556Z,331
2023-03-23T10:20:23.854Z,333
2023-03-23T10:21:23.556Z,344
2023-03-23T10:23:23.312Z,337
2023-03-23T10:24:23.439Z,352
2023-03-23T10:25:23.282Z,348
2023-03-23T10:26:23.477Z,342
2023-03-23T10:27:23.254Z,330
2023-03-23T10:28:23.802Z,339
2023-03-23T10:29:23.624Z,336
2023-03-23T10:30:23.952Z,333
2023-03-23T10:31:23.197Z,330
2023-03-23T10:32:23.989Z,336
2023-03-23T10:33:23.267Z,334
2023-03-23T10:34:23.221Z,325
2023-03-23T10:35:24.221Z,334
2023-03-23T10:36:23.261Z,335
2023-03-23T10:37:23.555Z,342
2023-03-23T10:38:23.162Z,337
2023-03-23T10:39:23.255Z,331
2023-03-23T10:40:23.442Z,328
2023-03-23T10:41:23.532Z,340
2023-03-23T10:42:23.142Z,337
2023-03-23T10:43:22.625Z,341
2023-03-23T10:44:23.072Z,338
2023-03-23T10:45:23.074Z,330
2023-03-23T10:46:31.947Z,339
2023-03-23T10:47:23.547Z,343
2023-03-23T10:48:24.514Z,332
2023-03-23T10:49:24.157Z,333
2023-03-23T10:50:24.635Z,337
2023-03-23T10:51:24.073Z,342
2023-03-23T10:52:25.134Z,335
2023-03-23T10:53:24.760Z,340
2023-03-23T10:54:24.305Z,345
2023-03-23T10:55:24.203Z,342
2023-03-23T10:56:24.285Z,340
2023-03-23T10:57:25.085Z,344
2023-03-23T10:58:25.579Z,351
2023-03-23T10:59:25.366Z,338
2023-03-23T11:00:26.167Z,339
2023-03-23T11:01:26.444Z,344
2023-03-23T11:02:29.633Z,343
2023-03-23T11:03:24.658Z,336
2023-03-23T11:04:24.899Z,335
2023-03-23T11:05:25.214Z,336
2023-03-23T11:06:24.948Z,347
2023-03-23T11:07:24.039Z,342
2023-03-23T11:08:24.911Z,341
2023-03-23T11:09:24.283Z,342
2023-03-23T11:10:24.084Z,341
2023-03-23T11:11:23.968Z,327
2023-03-23T11:12:24.595Z,337
2023-03-23T11:13:24.212Z,343
2023-03-23T11:14:24.564Z,342
2023-03-23T11:15:24.616Z,335
2023-03-23T11:16:24.205Z,327
2023-03-23T11:17:24.495Z,331
2023-03-23T11:18:23.975Z,330
2023-03-23T11:19:24.831Z,327
2023-03-23T11:20:24.514Z,325
2023-03-23T11:21:24.568Z,333
2023-03-23T11:22:25.173Z,341
2023-03-23T11:23:33.211Z,334
2023-03-23T11:24:25.222Z,326
2023-03-23T11:25:25.334Z,323
2023-03-23T11:26:24.520Z,327
2023-03-23T11:27:24.343Z,329
2023-03-23T11:28:25.150Z,337
2023-03-23T11:29:24.772Z,329
2023-03-23T11:30:25.519Z,340
2023-03-23T11:31:24.335Z,348
2023-03-23T11:32:24.859Z,332
2023-03-23T11:33:25.797Z,327
2023-03-23T11:34:24.974Z,335
2023-03-23T11:35:24.737Z,331
2023-03-23T11:36:25.320Z,340
2023-03-23T11:37:24.761Z,344
2023-03-23T11:38:25.052Z,343
2023-03-23T11:39:24.674Z,354
2023-03-23T11:40:24.416Z,349
2023-03-23T11:41:24.901Z,336
2023-03-23T11:42:25.017Z,340
2023-03-23T11:43:25.321Z,336
2023-03-23T11:44:24.696Z,331
2023-03-23T11:45:44.212Z,324
2023-03-23T11:46:27.820Z,326
2023-03-23T11:47:24.514Z,337
2023-03-23T11:48:24.697Z,336
2023-03-23T11:49:26.198Z,332
2023-03-23T11:50:25.043Z,333
2023-03-23T11:51:25.407Z,336
2023-03-23T11:52:25.438Z,338
2023-03-23T11:53:25.505Z,346
2023-03-23T11:54:24.728Z,341
2023-03-23T11:55:24.975Z,334
2023-03-23T11:56:25.364Z,331
2023-03-23T11:57:24.648Z,325
2023-03-23T11:58:25.192Z,335
2023-03-23T11:59:24.577Z,334
2023-03-23T12:00:26.012Z,328
2023-03-23T12:01:24.930Z,326
2023-03-23T12:02:23.879Z,338
2023-03-23T12:03:23.866Z,351
2023-03-23T12:04:24.291Z,349
2023-03-23T12:05:24.915Z,348
2023-03-23T12:06:24.212Z,335
2023-03-23T12:07:23.409Z,332
2023-03-23T12:08:23.503Z,336
2023-03-23T12:09:23.511Z,343
2023-03-23T12:11:23.800Z,344
2023-03-23T12:12:23.126Z,331
2023-03-23T12:13:23.092Z,325
2023-03-23T12:14:25.194Z,331
2023-03-23T12:15:23.681Z,332
2023-03-23T12:16:23.602Z,340
2023-03-23T12:17:23.205Z,337
2023-03-23T12:19:23.148Z,334
2023-03-23T12:20:23.860Z,348
2023-03-23T12:21:23.922Z,350
2023-03-23T12:22:23.250Z,343
2023-03-23T12:23:23.974Z,339
2023-03-23T12:24:25.042Z,336
2023-03-23T12:25:24.310Z,330
2023-03-23T12:26:24.963Z,331
2023-03-23T12:27:24.927Z,330
2023-03-23T12:28:24.481Z,337
2023-03-23T12:29:24.930Z,339
2023-03-23T12:31:24.600Z,342
2023-03-23T12:32:24.778Z,334
2023-03-23T12:33:24.569Z,328
2023-03-23T12:34:24.575Z,331
2023-03-23T12:35:24.450Z,337
2023-03-23T12:36:24.451Z,338
2023-03-23T12:37:24.566Z,340
2023-03-23T12:38:24.139Z,342
2023-03-23T12:39:24.680Z,344
2023-03-23T12:40:24.656Z,332
2023-03-23T12:41:24.863Z,335
2023-03-23T12:42:24.435Z,342
2023-03-23T12:43:24.326Z,328
2023-03-23T12:44:24.716Z,333
2023-03-23T12:46:24.324Z,337
2023-03-23T12:47:24.232Z,339
2023-03-23T12:48:23.810Z,348
2023-03-23T12:49:24.369Z,339
2023-03-23T12:50:25.066Z,347
2023-03-23T12:52:24.914Z,335
2023-03-23T12:53:23.954Z,333
2023-03-23T12:54:24.712Z,330
2023-03-23T12:55:24.260Z,329
2023-03-23T12:56:24.429Z,343
2023-03-23T12:57:24.803Z,338
2023-03-23T12:58:24.382Z,333
2023-03-23T12:59:25.274Z,330
2023-03-23T13:00:26.224Z,331
2023-03-23T13:01:25.236Z,336
2023-03-23T13:02:25.396Z,337
2023-03-23T13:03:24.465Z,343
2023-03-23T13:04:24.904Z,334
2023-03-23T13:05:25.069Z,337
2023-03-23T13:07:24.995Z,331
2023-03-23T13:08:24.854Z,333
2023-03-23T13:09:25.082Z,340
2023-03-23T13:10:24.656Z,346
2023-03-23T13:11:24.487Z,354
2023-03-23T13:12:25.188Z,356
2023-03-23T13:13:25.104Z,348
2023-03-23T13:14:24.595Z,345
2023-03-23T13:15:25.298Z,336
2023-03-23T13:16:24.559Z,330
2023-03-23T13:17:25.082Z,337
2023-03-23T13:18:24.057Z,342
2023-03-23T13:19:25.275Z,335
2023-03-23T13:20:24.975Z,340
2023-03-23T13:21:24.575Z,347
2023-03-23T13:22:24.982Z,339
2023-03-23T13:23:23.658Z,334
2023-03-23T13:24:24.617Z,344
2023-03-23T13:25:25.471Z,338
2023-03-23T13:26:24.793Z,341
2023-03-23T13:27:24.412Z,334
2023-03-23T13:28:24.304Z,339
2023-03-23T13:29:24.664Z,337
2023-03-23T13:30:24.698Z,339
2023-03-23T13:31:24.293Z,341
2023-03-23T13:32:28.546Z,346
2023-03-23T13:33:23.637Z,342
2023-03-23T13:34:23.489Z,343
2023-03-23T13:35:23.719Z,337
2023-03-23T13:36:28.162Z,336
2023-03-23T13:37:23.972Z,341
2023-03-23T13:38:23.111Z,344
2023-03-23T13:39:23.356Z,335
2023-03-23T13:40:31.790Z,345
2023-03-23T13:41:24.032Z,341
2023-03-23T13:42:31.188Z,336
2023-03-23T13:43:23.325Z,340
2023-03-23T13:45:23.994Z,337
2023-03-23T13:46:23.939Z,334
2023-03-23T13:47:22.843Z,340
2023-03-23T13:48:23.215Z,336
2023-03-23T13:49:24.199Z,339
2023-03-23T13:50:23.312Z,338
2023-03-23T13:51:23.722Z,332
2023-03-23T13:52:37.802Z,333
2023-03-23T13:53:24.369Z,337
2023-03-23T13:54:38.886Z,339
2023-03-23T13:55:25.170Z,338
2023-03-23T13:56:39.397Z,341
2023-03-23T13:57:25.229Z,338
2023-03-23T13:58:24.776Z,332
2023-03-23T13:59:25.085Z,325
2023-03-23T14:00:40.012Z,319
2023-03-23T14:01:25.097Z,328
2023-03-23T14:02:24.984Z,329
2023-03-23T14:03:25.254Z,324
2023-03-23T14:04:24.284Z,337
2023-03-23T14:05:24.861Z,341
2023-03-23T14:06:24.438Z,346
2023-03-23T14:07:24.113Z,351
2023-03-23T14:08:24.088Z,332
2023-03-23T14:09:24.634Z,331
2023-03-23T14:10:25.136Z,327
2023-03-23T14:11:25.027Z,325
2023-03-23T14:12:23.990Z,327
2023-03-23T14:13:24.535Z,332
2023-03-23T14:14:24.624Z,330
2023-03-23T14:15:25.295Z,329
2023-03-23T14:16:23.890Z,332
2023-03-23T14:17:24.482Z,333
2023-03-23T14:18:24.045Z,346
2023-03-23T14:19:25.008Z,345
2023-03-23T14:20:25.035Z,342
2023-03-23T14:21:24.414Z,337
2023-03-23T14:22:24.362Z,339
2023-03-23T14:23:24.557Z,328
2023-03-23T14:24:24.920Z,337
2023-03-23T14:25:24.707Z,347
2023-03-23T14:26:25.028Z,343
2023-03-23T14:27:25.572Z,342
2023-03-23T14:28:24.946Z,337
2023-03-23T14:29:25.565Z,325
2023-03-23T14:30:25.166Z,334
2023-03-23T14:32:24.476Z,345
2023-03-23T14:33:24.902Z,336
2023-03-23T14:34:25.155Z,342
2023-03-23T14:35:25.405Z,341
2023-03-23T14:37:24.216Z,339
2023-03-23T14:38:25.004Z,335
2023-03-23T14:39:24.464Z,330